sensor_id;sensor_type;location;lat;lon;timestamp;P1;durP1;ratioP1;P2;durP2;ratioP2
68273;SDS011;55104;47.356;19.448;2023-09-12T00:02:16;12.18;;;4.20;;
68273;SDS011;55104;47.356;19.448;2023-09-12T00:05:19;13.57;;;4.45;;
68273;SDS011;55104;47.356;19.448;2023-09-12T00:08:21;11.73;;;4.47;;
68273;SDS011;55104;47.356;19.448;2023-09-12T00:11:24;13.50;;;4.13;;
68273;SDS011;55104;47.356;19.448;2023-09-12T00:14:28;11.18;;;4.28;;
68273;SDS011;55104;47.356;19.448;2023-09-12T00:17:30;11.35;;;4.32;;
68273;SDS011;55104;47.356;19.448;2023-09-12T00:20:33;10.65;;;4.03;;
68273;SDS011;55104;47.356;19.448;2023-09-12T00:23:54;11.37;;;4.10;;
68273;SDS011;55104;47.356;19.448;2023-09-12T00:26:56;10.95;;;4.38;;
68273;SDS011;55104;47.356;19.448;2023-09-12T00:29:58;12.43;;;4.72;;
68273;SDS011;55104;47.356;19.448;2023-09-12T00:33:01;13.07;;;3.65;;
68273;SDS011;55104;47.356;19.448;2023-09-12T00:36:03;14.13;;;3.92;;
68273;SDS011;55104;47.356;19.448;2023-09-12T00:39:05;11.03;;;3.80;;
68273;SDS011;55104;47.356;19.448;2023-09-12T00:42:08;9.27;;;3.63;;
68273;SDS011;55104;47.356;19.448;2023-09-12T00:45:10;12.85;;;3.92;;
68273;SDS011;55104;47.356;19.448;2023-09-12T00:48:12;9.13;;;3.63;;
68273;SDS011;55104;47.356;19.448;2023-09-12T00:51:16;11.70;;;3.95;;
68273;SDS011;55104;47.356;19.448;2023-09-12T00:54:23;11.60;;;3.67;;
68273;SDS011;55104;47.356;19.448;2023-09-12T00:57:26;13.15;;;3.72;;
68273;SDS011;55104;47.356;19.448;2023-09-12T01:00:29;10.50;;;3.85;;
68273;SDS011;55104;47.356;19.448;2023-09-12T01:03:31;9.00;;;4.03;;
68273;SDS011;55104;47.356;19.448;2023-09-12T01:06:34;15.07;;;4.20;;
68273;SDS011;55104;47.356;19.448;2023-09-12T01:09:36;12.63;;;3.97;;
68273;SDS011;55104;47.356;19.448;2023-09-12T01:12:40;11.90;;;4.10;;
68273;SDS011;55104;47.356;19.448;2023-09-12T01:15:42;11.05;;;3.85;;
68273;SDS011;55104;47.356;19.448;2023-09-12T01:18:45;9.60;;;4.18;;
68273;SDS011;55104;47.356;19.448;2023-09-12T01:25:20;12.90;;;4.50;;
68273;SDS011;55104;47.356;19.448;2023-09-12T01:28:33;12.98;;;5.00;;
68273;SDS011;55104;47.356;19.448;2023-09-12T01:31:37;10.45;;;3.95;;
68273;SDS011;55104;47.356;19.448;2023-09-12T01:34:42;15.38;;;3.78;;
68273;SDS011;55104;47.356;19.448;2023-09-12T01:37:44;15.30;;;3.70;;
68273;SDS011;55104;47.356;19.448;2023-09-12T01:40:49;12.30;;;4.07;;
68273;SDS011;55104;47.356;19.448;2023-09-12T01:43:53;11.23;;;3.88;;
68273;SDS011;55104;47.356;19.448;2023-09-12T01:46:57;11.32;;;4.35;;
68273;SDS011;55104;47.356;19.448;2023-09-12T01:50:05;10.23;;;3.83;;
68273;SDS011;55104;47.356;19.448;2023-09-12T01:53:10;11.85;;;4.05;;
68273;SDS011;55104;47.356;19.448;2023-09-12T01:56:13;11.50;;;3.87;;
68273;SDS011;55104;47.356;19.448;2023-09-12T01:59:15;15.80;;;4.40;;
68273;SDS011;55104;47.356;19.448;2023-09-12T02:02:17;16.58;;;4.28;;
68273;SDS011;55104;47.356;19.448;2023-09-12T02:05:20;13.13;;;4.18;;
68273;SDS011;55104;47.356;19.448;2023-09-12T02:08:24;13.80;;;4.35;;
68273;SDS011;55104;47.356;19.448;2023-09-12T02:11:27;16.13;;;4.40;;
68273;SDS011;55104;47.356;19.448;2023-09-12T02:14:29;11.35;;;4.60;;
68273;SDS011;55104;47.356;19.448;2023-09-12T02:17:31;10.43;;;4.40;;
68273;SDS011;55104;47.356;19.448;2023-09-12T02:20:37;12.82;;;4.88;;
68273;SDS011;55104;47.356;19.448;2023-09-12T02:23:40;12.48;;;4.60;;
68273;SDS011;55104;47.356;19.448;2023-09-12T02:26:42;14.63;;;5.07;;
68273;SDS011;55104;47.356;19.448;2023-09-12T02:29:44;11.27;;;4.70;;
68273;SDS011;55104;47.356;19.448;2023-09-12T02:32:46;14.32;;;5.20;;
68273;SDS011;55104;47.356;19.448;2023-09-12T02:35:49;12.18;;;4.28;;
68273;SDS011;55104;47.356;19.448;2023-09-12T02:38:51;14.50;;;4.80;;
68273;SDS011;55104;47.356;19.448;2023-09-12T02:41:53;15.70;;;5.07;;
68273;SDS011;55104;47.356;19.448;2023-09-12T02:44:55;14.80;;;5.35;;
68273;SDS011;55104;47.356;19.448;2023-09-12T02:47:57;12.50;;;4.78;;
68273;SDS011;55104;47.356;19.448;2023-09-12T02:51:00;15.73;;;5.15;;
68273;SDS011;55104;47.356;19.448;2023-09-12T02:54:02;11.65;;;4.57;;
68273;SDS011;55104;47.356;19.448;2023-09-12T02:57:04;12.23;;;4.80;;
68273;SDS011;55104;47.356;19.448;2023-09-12T03:00:06;9.80;;;4.43;;
68273;SDS011;55104;47.356;19.448;2023-09-12T03:03:10;12.57;;;5.07;;
68273;SDS011;55104;47.356;19.448;2023-09-12T03:06:13;12.55;;;4.70;;
68273;SDS011;55104;47.356;19.448;2023-09-12T03:09:19;10.13;;;5.13;;
68273;SDS011;55104;47.356;19.448;2023-09-12T03:12:22;12.33;;;5.00;;
68273;SDS011;55104;47.356;19.448;2023-09-12T03:15:24;11.68;;;5.30;;
68273;SDS011;55104;47.356;19.448;2023-09-12T03:18:26;21.35;;;5.68;;
68273;SDS011;55104;47.356;19.448;2023-09-12T03:21:30;14.05;;;5.72;;
68273;SDS011;55104;47.356;19.448;2023-09-12T03:24:32;16.50;;;5.30;;
68273;SDS011;55104;47.356;19.448;2023-09-12T03:27:35;12.63;;;5.33;;
68273;SDS011;55104;47.356;19.448;2023-09-12T03:30:37;11.88;;;5.47;;
68273;SDS011;55104;47.356;19.448;2023-09-12T03:33:42;15.07;;;5.60;;
68273;SDS011;55104;47.356;19.448;2023-09-12T03:36:45;20.15;;;6.00;;
68273;SDS011;55104;47.356;19.448;2023-09-12T03:39:47;10.93;;;5.15;;
68273;SDS011;55104;47.356;19.448;2023-09-12T03:42:49;15.67;;;5.20;;
68273;SDS011;55104;47.356;19.448;2023-09-12T03:45:51;17.33;;;5.65;;
68273;SDS011;55104;47.356;19.448;2023-09-12T03:48:54;12.98;;;6.00;;
68273;SDS011;55104;47.356;19.448;2023-09-12T03:51:56;14.73;;;6.32;;
68273;SDS011;55104;47.356;19.448;2023-09-12T03:54:59;13.48;;;5.95;;
68273;SDS011;55104;47.356;19.448;2023-09-12T03:58:03;14.73;;;5.80;;
68273;SDS011;55104;47.356;19.448;2023-09-12T04:01:05;13.73;;;6.18;;
68273;SDS011;55104;47.356;19.448;2023-09-12T04:04:07;15.68;;;6.38;;
68273;SDS011;55104;47.356;19.448;2023-09-12T04:07:10;16.73;;;5.90;;
68273;SDS011;55104;47.356;19.448;2023-09-12T04:10:12;20.55;;;6.35;;
68273;SDS011;55104;47.356;19.448;2023-09-12T04:13:14;18.93;;;5.70;;
68273;SDS011;55104;47.356;19.448;2023-09-12T04:16:16;12.13;;;5.93;;
68273;SDS011;55104;47.356;19.448;2023-09-12T04:19:18;14.38;;;6.25;;
68273;SDS011;55104;47.356;19.448;2023-09-12T04:22:20;12.30;;;5.45;;
68273;SDS011;55104;47.356;19.448;2023-09-12T04:25:25;11.75;;;6.28;;
68273;SDS011;55104;47.356;19.448;2023-09-12T04:28:27;15.33;;;5.70;;
68273;SDS011;55104;47.356;19.448;2023-09-12T04:31:29;13.13;;;5.90;;
68273;SDS011;55104;47.356;19.448;2023-09-12T04:34:31;15.13;;;6.57;;
68273;SDS011;55104;47.356;19.448;2023-09-12T04:37:33;12.63;;;6.22;;
68273;SDS011;55104;47.356;19.448;2023-09-12T04:40:36;18.30;;;6.57;;
68273;SDS011;55104;47.356;19.448;2023-09-12T04:43:41;16.63;;;6.37;;
68273;SDS011;55104;47.356;19.448;2023-09-12T04:46:43;17.08;;;6.15;;
68273;SDS011;55104;47.356;19.448;2023-09-12T04:49:45;19.08;;;6.40;;
68273;SDS011;55104;47.356;19.448;2023-09-12T04:52:47;18.83;;;6.43;;
68273;SDS011;55104;47.356;19.448;2023-09-12T04:55:51;17.15;;;6.30;;
68273;SDS011;55104;47.356;19.448;2023-09-12T04:58:55;22.87;;;7.30;;
68273;SDS011;55104;47.356;19.448;2023-09-12T05:01:57;23.00;;;6.60;;
68273;SDS011;55104;47.356;19.448;2023-09-12T05:04:59;25.05;;;8.13;;
68273;SDS011;55104;47.356;19.448;2023-09-12T05:08:01;23.58;;;7.13;;
68273;SDS011;55104;47.356;19.448;2023-09-12T05:11:04;29.27;;;7.40;;
68273;SDS011;55104;47.356;19.448;2023-09-12T05:14:06;21.27;;;6.87;;
68273;SDS011;55104;47.356;19.448;2023-09-12T05:17:08;27.90;;;7.75;;
68273;SDS011;55104;47.356;19.448;2023-09-12T05:20:11;29.05;;;8.75;;
68273;SDS011;55104;47.356;19.448;2023-09-12T05:23:13;25.17;;;8.65;;
68273;SDS011;55104;47.356;19.448;2023-09-12T05:26:15;32.10;;;9.20;;
68273;SDS011;55104;47.356;19.448;2023-09-12T05:29:17;30.50;;;10.13;;
68273;SDS011;55104;47.356;19.448;2023-09-12T05:32:20;36.45;;;9.73;;
68273;SDS011;55104;47.356;19.448;2023-09-12T05:35:22;36.83;;;8.90;;
68273;SDS011;55104;47.356;19.448;2023-09-12T05:38:25;26.77;;;8.73;;
68273;SDS011;55104;47.356;19.448;2023-09-12T05:41:27;25.27;;;8.38;;
68273;SDS011;55104;47.356;19.448;2023-09-12T05:44:31;21.73;;;7.27;;
68273;SDS011;55104;47.356;19.448;2023-09-12T05:47:34;29.15;;;7.35;;
68273;SDS011;55104;47.356;19.448;2023-09-12T05:50:36;20.50;;;7.13;;
68273;SDS011;55104;47.356;19.448;2023-09-12T05:53:39;16.75;;;6.53;;
68273;SDS011;55104;47.356;19.448;2023-09-12T05:56:41;18.63;;;6.30;;
68273;SDS011;55104;47.356;19.448;2023-09-12T05:59:45;12.40;;;5.67;;
68273;SDS011;55104;47.356;19.448;2023-09-12T06:02:47;13.00;;;6.00;;
68273;SDS011;55104;47.356;19.448;2023-09-12T06:05:50;14.82;;;6.13;;
68273;SDS011;55104;47.356;19.448;2023-09-12T06:08:53;17.30;;;6.00;;
68273;SDS011;55104;47.356;19.448;2023-09-12T06:11:55;21.15;;;6.32;;
68273;SDS011;55104;47.356;19.448;2023-09-12T06:14:57;10.70;;;5.07;;
68273;SDS011;55104;47.356;19.448;2023-09-12T06:17:59;16.92;;;5.25;;
68273;SDS011;55104;47.356;19.448;2023-09-12T06:21:02;19.48;;;5.45;;
68273;SDS011;55104;47.356;19.448;2023-09-12T06:24:14;10.85;;;4.97;;
68273;SDS011;55104;47.356;19.448;2023-09-12T06:27:20;13.75;;;5.57;;
68273;SDS011;55104;47.356;19.448;2023-09-12T06:30:23;11.13;;;4.70;;
68273;SDS011;55104;47.356;19.448;2023-09-12T06:33:26;9.88;;;4.70;;
68273;SDS011;55104;47.356;19.448;2023-09-12T06:36:29;12.63;;;5.10;;
68273;SDS011;55104;47.356;19.448;2023-09-12T06:39:32;11.18;;;4.82;;
68273;SDS011;55104;47.356;19.448;2023-09-12T06:42:39;11.55;;;5.25;;
68273;SDS011;55104;47.356;19.448;2023-09-12T06:45:41;12.63;;;5.03;;
68273;SDS011;55104;47.356;19.448;2023-09-12T06:48:44;12.13;;;5.10;;
68273;SDS011;55104;47.356;19.448;2023-09-12T06:51:48;10.30;;;5.30;;
68273;SDS011;55104;47.356;19.448;2023-09-12T06:54:52;10.88;;;5.40;;
68273;SDS011;55104;47.356;19.448;2023-09-12T06:57:54;11.98;;;5.38;;
68273;SDS011;55104;47.356;19.448;2023-09-12T07:01:06;13.60;;;5.70;;
68273;SDS011;55104;47.356;19.448;2023-09-12T07:04:09;14.98;;;5.38;;
68273;SDS011;55104;47.356;19.448;2023-09-12T07:07:11;14.95;;;6.65;;
68273;SDS011;55104;47.356;19.448;2023-09-12T07:10:14;16.20;;;6.20;;
68273;SDS011;55104;47.356;19.448;2023-09-12T07:13:25;13.75;;;6.45;;
68273;SDS011;55104;47.356;19.448;2023-09-12T07:16:28;14.40;;;5.63;;
68273;SDS011;55104;47.356;19.448;2023-09-12T07:19:30;13.90;;;5.70;;
68273;SDS011;55104;47.356;19.448;2023-09-12T07:22:32;16.00;;;6.05;;
68273;SDS011;55104;47.356;19.448;2023-09-12T07:25:38;13.55;;;5.97;;
68273;SDS011;55104;47.356;19.448;2023-09-12T07:28:42;13.93;;;6.03;;
68273;SDS011;55104;47.356;19.448;2023-09-12T07:31:44;14.47;;;6.23;;
68273;SDS011;55104;47.356;19.448;2023-09-12T07:34:47;16.40;;;6.22;;
68273;SDS011;55104;47.356;19.448;2023-09-12T07:37:50;14.93;;;6.38;;
68273;SDS011;55104;47.356;19.448;2023-09-12T07:40:52;17.27;;;6.90;;
68273;SDS011;55104;47.356;19.448;2023-09-12T07:43:54;14.80;;;5.80;;
68273;SDS011;55104;47.356;19.448;2023-09-12T07:46:57;16.87;;;5.97;;
68273;SDS011;55104;47.356;19.448;2023-09-12T07:49:59;15.63;;;5.22;;
68273;SDS011;55104;47.356;19.448;2023-09-12T07:53:05;12.65;;;4.90;;
68273;SDS011;55104;47.356;19.448;2023-09-12T07:56:08;10.55;;;4.82;;
68273;SDS011;55104;47.356;19.448;2023-09-12T07:59:12;12.77;;;5.03;;
68273;SDS011;55104;47.356;19.448;2023-09-12T08:02:16;15.63;;;4.83;;
68273;SDS011;55104;47.356;19.448;2023-09-12T08:05:18;11.07;;;4.80;;
68273;SDS011;55104;47.356;19.448;2023-09-12T08:08:20;17.48;;;5.20;;
68273;SDS011;55104;47.356;19.448;2023-09-12T08:11:23;14.45;;;4.97;;
68273;SDS011;55104;47.356;19.448;2023-09-12T08:14:25;15.30;;;5.15;;
68273;SDS011;55104;47.356;19.448;2023-09-12T08:17:27;10.30;;;4.30;;
68273;SDS011;55104;47.356;19.448;2023-09-12T08:20:30;11.02;;;4.10;;
68273;SDS011;55104;47.356;19.448;2023-09-12T08:23:32;11.55;;;4.47;;
68273;SDS011;55104;47.356;19.448;2023-09-12T08:26:34;14.40;;;4.25;;
68273;SDS011;55104;47.356;19.448;2023-09-12T08:29:36;13.63;;;4.65;;
68273;SDS011;55104;47.356;19.448;2023-09-12T08:32:39;13.57;;;4.67;;
68273;SDS011;55104;47.356;19.448;2023-09-12T08:35:46;11.13;;;4.20;;
68273;SDS011;55104;47.356;19.448;2023-09-12T08:38:48;13.30;;;4.45;;
68273;SDS011;55104;47.356;19.448;2023-09-12T08:41:50;12.93;;;4.22;;
68273;SDS011;55104;47.356;19.448;2023-09-12T08:44:53;10.43;;;4.57;;
68273;SDS011;55104;47.356;19.448;2023-09-12T08:47:56;11.23;;;4.20;;
68273;SDS011;55104;47.356;19.448;2023-09-12T08:51:01;9.93;;;3.60;;
68273;SDS011;55104;47.356;19.448;2023-09-12T08:54:05;11.60;;;5.00;;
68273;SDS011;55104;47.356;19.448;2023-09-12T08:57:09;18.10;;;4.90;;
68273;SDS011;55104;47.356;19.448;2023-09-12T09:00:14;10.27;;;4.22;;
68273;SDS011;55104;47.356;19.448;2023-09-12T09:03:17;12.97;;;4.40;;
68273;SDS011;55104;47.356;19.448;2023-09-12T09:06:21;11.00;;;4.13;;
68273;SDS011;55104;47.356;19.448;2023-09-12T09:09:25;9.32;;;3.60;;
68273;SDS011;55104;47.356;19.448;2023-09-12T09:12:28;11.05;;;3.85;;
68273;SDS011;55104;47.356;19.448;2023-09-12T09:15:31;10.82;;;3.78;;
68273;SDS011;55104;47.356;19.448;2023-09-12T09:18:49;8.87;;;3.77;;
68273;SDS011;55104;47.356;19.448;2023-09-12T09:21:55;12.00;;;3.85;;
68273;SDS011;55104;47.356;19.448;2023-09-12T09:25:10;8.90;;;3.53;;
68273;SDS011;55104;47.356;19.448;2023-09-12T09:28:16;13.93;;;4.30;;
68273;SDS011;55104;47.356;19.448;2023-09-12T09:31:19;12.15;;;3.50;;
68273;SDS011;55104;47.356;19.448;2023-09-12T09:34:23;10.00;;;4.03;;
68273;SDS011;55104;47.356;19.448;2023-09-12T09:37:26;7.88;;;3.58;;
68273;SDS011;55104;47.356;19.448;2023-09-12T09:40:28;11.73;;;3.53;;
68273;SDS011;55104;47.356;19.448;2023-09-12T09:43:31;11.38;;;3.63;;
68273;SDS011;55104;47.356;19.448;2023-09-12T09:46:36;13.40;;;4.38;;
68273;SDS011;55104;47.356;19.448;2023-09-12T09:49:39;13.67;;;3.83;;
68273;SDS011;55104;47.356;19.448;2023-09-12T09:52:45;11.68;;;3.33;;
68273;SDS011;55104;47.356;19.448;2023-09-12T09:55:47;9.70;;;3.40;;
68273;SDS011;55104;47.356;19.448;2023-09-12T09:58:56;10.93;;;3.55;;
68273;SDS011;55104;47.356;19.448;2023-09-12T10:01:59;10.23;;;3.42;;
68273;SDS011;55104;47.356;19.448;2023-09-12T10:05:05;6.67;;;3.17;;
68273;SDS011;55104;47.356;19.448;2023-09-12T10:08:08;9.30;;;3.50;;
68273;SDS011;55104;47.356;19.448;2023-09-12T10:11:14;9.63;;;3.80;;
68273;SDS011;55104;47.356;19.448;2023-09-12T10:14:18;7.93;;;3.20;;
68273;SDS011;55104;47.356;19.448;2023-09-12T10:17:21;8.90;;;3.92;;
68273;SDS011;55104;47.356;19.448;2023-09-12T10:20:45;10.87;;;3.40;;
68273;SDS011;55104;47.356;19.448;2023-09-12T10:23:52;8.75;;;3.60;;
68273;SDS011;55104;47.356;19.448;2023-09-12T10:26:57;9.85;;;3.53;;
68273;SDS011;55104;47.356;19.448;2023-09-12T10:30:01;10.88;;;3.47;;
68273;SDS011;55104;47.356;19.448;2023-09-12T10:33:06;15.10;;;4.45;;
68273;SDS011;55104;47.356;19.448;2023-09-12T10:36:11;11.17;;;3.93;;
68273;SDS011;55104;47.356;19.448;2023-09-12T10:39:15;13.15;;;4.20;;
68273;SDS011;55104;47.356;19.448;2023-09-12T10:42:17;11.27;;;3.80;;
68273;SDS011;55104;47.356;19.448;2023-09-12T10:45:22;14.88;;;4.55;;
68273;SDS011;55104;47.356;19.448;2023-09-12T10:48:25;8.98;;;3.67;;
68273;SDS011;55104;47.356;19.448;2023-09-12T10:51:27;9.10;;;3.43;;
68273;SDS011;55104;47.356;19.448;2023-09-12T10:54:40;8.32;;;3.45;;
68273;SDS011;55104;47.356;19.448;2023-09-12T10:58:04;11.50;;;3.78;;
68273;SDS011;55104;47.356;19.448;2023-09-12T11:01:21;11.85;;;3.20;;
68273;SDS011;55104;47.356;19.448;2023-09-12T11:10:33;8.45;;;3.33;;
68273;SDS011;55104;47.356;19.448;2023-09-12T11:13:38;11.35;;;3.58;;
68273;SDS011;55104;47.356;19.448;2023-09-12T11:16:43;12.13;;;4.10;;
68273;SDS011;55104;47.356;19.448;2023-09-12T11:20:06;10.55;;;3.40;;
68273;SDS011;55104;47.356;19.448;2023-09-12T11:23:12;9.20;;;3.43;;
68273;SDS011;55104;47.356;19.448;2023-09-12T11:26:15;11.05;;;3.53;;
68273;SDS011;55104;47.356;19.448;2023-09-12T11:29:17;9.85;;;3.80;;
68273;SDS011;55104;47.356;19.448;2023-09-12T11:32:27;11.38;;;3.55;;
68273;SDS011;55104;47.356;19.448;2023-09-12T11:35:35;8.00;;;3.17;;
68273;SDS011;55104;47.356;19.448;2023-09-12T11:38:39;9.53;;;4.03;;
68273;SDS011;55104;47.356;19.448;2023-09-12T11:41:41;9.38;;;3.58;;
68273;SDS011;55104;47.356;19.448;2023-09-12T11:44:44;10.13;;;3.60;;
68273;SDS011;55104;47.356;19.448;2023-09-12T11:47:49;9.07;;;3.33;;
68273;SDS011;55104;47.356;19.448;2023-09-12T11:50:52;9.13;;;3.65;;
68273;SDS011;55104;47.356;19.448;2023-09-12T11:53:56;9.33;;;3.57;;
68273;SDS011;55104;47.356;19.448;2023-09-12T11:57:01;11.93;;;3.17;;
68273;SDS011;55104;47.356;19.448;2023-09-12T12:00:04;10.63;;;3.60;;
68273;SDS011;55104;47.356;19.448;2023-09-12T12:03:13;9.82;;;3.30;;
68273;SDS011;55104;47.356;19.448;2023-09-12T12:06:16;10.88;;;3.65;;
68273;SDS011;55104;47.356;19.448;2023-09-12T12:09:19;10.60;;;3.80;;
68273;SDS011;55104;47.356;19.448;2023-09-12T12:12:22;9.07;;;3.30;;
68273;SDS011;55104;47.356;19.448;2023-09-12T12:15:27;12.80;;;3.38;;
68273;SDS011;55104;47.356;19.448;2023-09-12T12:18:29;10.50;;;3.85;;
68273;SDS011;55104;47.356;19.448;2023-09-12T12:21:32;10.45;;;3.60;;
68273;SDS011;55104;47.356;19.448;2023-09-12T12:24:41;9.83;;;3.83;;
68273;SDS011;55104;47.356;19.448;2023-09-12T12:27:47;11.80;;;4.38;;
68273;SDS011;55104;47.356;19.448;2023-09-12T12:30:50;10.85;;;3.90;;
68273;SDS011;55104;47.356;19.448;2023-09-12T12:33:56;10.18;;;3.78;;
68273;SDS011;55104;47.356;19.448;2023-09-12T12:37:19;15.90;;;3.83;;
68273;SDS011;55104;47.356;19.448;2023-09-12T12:40:21;11.23;;;3.40;;
68273;SDS011;55104;47.356;19.448;2023-09-12T12:43:24;10.93;;;3.50;;
68273;SDS011;55104;47.356;19.448;2023-09-12T12:46:26;19.35;;;4.75;;
68273;SDS011;55104;47.356;19.448;2023-09-12T12:49:29;16.17;;;3.83;;
68273;SDS011;55104;47.356;19.448;2023-09-12T12:52:38;14.63;;;3.65;;
68273;SDS011;55104;47.356;19.448;2023-09-12T12:55:41;9.70;;;3.30;;
68273;SDS011;55104;47.356;19.448;2023-09-12T12:59:01;15.43;;;3.90;;
68273;SDS011;55104;47.356;19.448;2023-09-12T13:02:08;12.15;;;3.40;;
68273;SDS011;55104;47.356;19.448;2023-09-12T13:05:20;14.32;;;4.20;;
68273;SDS011;55104;47.356;19.448;2023-09-12T13:08:26;10.73;;;3.42;;
68273;SDS011;55104;47.356;19.448;2023-09-12T13:11:28;14.77;;;3.80;;
68273;SDS011;55104;47.356;19.448;2023-09-12T13:14:31;9.73;;;3.65;;
68273;SDS011;55104;47.356;19.448;2023-09-12T13:17:34;12.13;;;3.95;;
68273;SDS011;55104;47.356;19.448;2023-09-12T13:20:36;12.80;;;3.58;;
68273;SDS011;55104;47.356;19.448;2023-09-12T13:23:38;13.55;;;4.45;;
68273;SDS011;55104;47.356;19.448;2023-09-12T13:26:41;11.40;;;3.43;;
68273;SDS011;55104;47.356;19.448;2023-09-12T13:29:44;11.95;;;3.53;;
68273;SDS011;55104;47.356;19.448;2023-09-12T13:32:47;12.25;;;4.05;;
68273;SDS011;55104;47.356;19.448;2023-09-12T13:35:49;11.20;;;3.55;;
68273;SDS011;55104;47.356;19.448;2023-09-12T13:38:52;12.27;;;4.10;;
68273;SDS011;55104;47.356;19.448;2023-09-12T13:41:55;10.30;;;3.40;;
68273;SDS011;55104;47.356;19.448;2023-09-12T13:44:59;13.38;;;3.70;;
68273;SDS011;55104;47.356;19.448;2023-09-12T13:48:02;12.05;;;3.30;;
68273;SDS011;55104;47.356;19.448;2023-09-12T13:51:05;14.75;;;3.80;;
68273;SDS011;55104;47.356;19.448;2023-09-12T13:54:07;12.00;;;3.97;;
68273;SDS011;55104;47.356;19.448;2023-09-12T13:57:16;13.30;;;3.67;;
68273;SDS011;55104;47.356;19.448;2023-09-12T14:00:18;10.60;;;3.22;;
68273;SDS011;55104;47.356;19.448;2023-09-12T14:03:32;10.70;;;3.35;;
68273;SDS011;55104;47.356;19.448;2023-09-12T14:06:35;10.55;;;3.17;;
68273;SDS011;55104;47.356;19.448;2023-09-12T14:09:39;12.98;;;3.65;;
68273;SDS011;55104;47.356;19.448;2023-09-12T14:12:42;13.70;;;4.20;;
68273;SDS011;55104;47.356;19.448;2023-09-12T14:15:47;13.50;;;3.90;;
68273;SDS011;55104;47.356;19.448;2023-09-12T14:18:52;12.35;;;3.35;;
68273;SDS011;55104;47.356;19.448;2023-09-12T14:21:54;12.32;;;3.50;;
68273;SDS011;55104;47.356;19.448;2023-09-12T14:24:58;12.02;;;3.58;;
68273;SDS011;55104;47.356;19.448;2023-09-12T14:28:00;9.37;;;3.53;;
68273;SDS011;55104;47.356;19.448;2023-09-12T14:31:03;11.75;;;3.35;;
68273;SDS011;55104;47.356;19.448;2023-09-12T14:34:07;11.95;;;3.55;;
68273;SDS011;55104;47.356;19.448;2023-09-12T14:37:10;9.57;;;3.55;;
68273;SDS011;55104;47.356;19.448;2023-09-12T14:40:13;9.10;;;3.38;;
68273;SDS011;55104;47.356;19.448;2023-09-12T14:43:18;10.67;;;3.90;;
68273;SDS011;55104;47.356;19.448;2023-09-12T14:46:21;10.10;;;3.50;;
68273;SDS011;55104;47.356;19.448;2023-09-12T14:49:23;10.10;;;2.97;;
68273;SDS011;55104;47.356;19.448;2023-09-12T14:52:25;8.73;;;3.00;;
68273;SDS011;55104;47.356;19.448;2023-09-12T14:55:31;11.68;;;3.17;;
68273;SDS011;55104;47.356;19.448;2023-09-12T14:58:34;11.27;;;3.30;;
68273;SDS011;55104;47.356;19.448;2023-09-12T15:01:37;14.27;;;3.50;;
68273;SDS011;55104;47.356;19.448;2023-09-12T15:04:39;10.40;;;3.55;;
68273;SDS011;55104;47.356;19.448;2023-09-12T15:07:41;11.35;;;2.95;;
68273;SDS011;55104;47.356;19.448;2023-09-12T15:10:44;8.40;;;3.15;;
68273;SDS011;55104;47.356;19.448;2023-09-12T15:13:46;15.50;;;3.30;;
68273;SDS011;55104;47.356;19.448;2023-09-12T15:16:49;8.77;;;3.00;;
68273;SDS011;55104;47.356;19.448;2023-09-12T15:19:52;10.98;;;3.45;;
68273;SDS011;55104;47.356;19.448;2023-09-12T15:22:54;14.48;;;3.35;;
68273;SDS011;55104;47.356;19.448;2023-09-12T15:25:56;9.60;;;3.28;;
68273;SDS011;55104;47.356;19.448;2023-09-12T15:28:58;10.43;;;3.20;;
68273;SDS011;55104;47.356;19.448;2023-09-12T15:32:05;11.05;;;3.28;;
68273;SDS011;55104;47.356;19.448;2023-09-12T15:35:08;9.00;;;2.72;;
68273;SDS011;55104;47.356;19.448;2023-09-12T15:38:12;10.35;;;3.10;;
68273;SDS011;55104;47.356;19.448;2023-09-12T15:41:15;9.90;;;2.88;;
68273;SDS011;55104;47.356;19.448;2023-09-12T15:44:18;12.90;;;3.37;;
68273;SDS011;55104;47.356;19.448;2023-09-12T15:47:20;10.50;;;2.88;;
68273;SDS011;55104;47.356;19.448;2023-09-12T15:50:22;11.85;;;3.15;;
68273;SDS011;55104;47.356;19.448;2023-09-12T15:53:24;11.73;;;3.40;;
68273;SDS011;55104;47.356;19.448;2023-09-12T15:56:27;11.43;;;3.40;;
68273;SDS011;55104;47.356;19.448;2023-09-12T15:59:29;11.60;;;2.93;;
68273;SDS011;55104;47.356;19.448;2023-09-12T16:02:33;10.65;;;3.17;;
68273;SDS011;55104;47.356;19.448;2023-09-12T16:05:35;10.98;;;3.50;;
68273;SDS011;55104;47.356;19.448;2023-09-12T16:08:37;11.98;;;3.28;;
68273;SDS011;55104;47.356;19.448;2023-09-12T16:11:39;17.70;;;3.33;;
68273;SDS011;55104;47.356;19.448;2023-09-12T16:14:41;11.40;;;3.03;;
68273;SDS011;55104;47.356;19.448;2023-09-12T16:17:44;7.88;;;2.85;;
68273;SDS011;55104;47.356;19.448;2023-09-12T16:20:46;14.35;;;3.40;;
68273;SDS011;55104;47.356;19.448;2023-09-12T16:23:49;13.45;;;3.58;;
68273;SDS011;55104;47.356;19.448;2023-09-12T16:26:54;18.42;;;3.40;;
68273;SDS011;55104;47.356;19.448;2023-09-12T16:29:56;17.70;;;3.23;;
68273;SDS011;55104;47.356;19.448;2023-09-12T16:32:59;15.45;;;3.25;;
68273;SDS011;55104;47.356;19.448;2023-09-12T16:36:01;13.68;;;3.70;;
68273;SDS011;55104;47.356;19.448;2023-09-12T16:39:22;17.95;;;3.70;;
68273;SDS011;55104;47.356;19.448;2023-09-12T16:42:24;15.35;;;4.65;;
68273;SDS011;55104;47.356;19.448;2023-09-12T16:45:28;12.83;;;3.63;;
68273;SDS011;55104;47.356;19.448;2023-09-12T16:48:30;13.75;;;3.40;;
68273;SDS011;55104;47.356;19.448;2023-09-12T16:51:33;16.48;;;3.50;;
68273;SDS011;55104;47.356;19.448;2023-09-12T16:54:36;9.63;;;3.28;;
68273;SDS011;55104;47.356;19.448;2023-09-12T16:57:39;10.32;;;3.30;;
68273;SDS011;55104;47.356;19.448;2023-09-12T17:00:42;13.00;;;3.30;;
68273;SDS011;55104;47.356;19.448;2023-09-12T17:03:44;13.00;;;3.60;;
68273;SDS011;55104;47.356;19.448;2023-09-12T17:06:47;18.48;;;3.58;;
68273;SDS011;55104;47.356;19.448;2023-09-12T17:09:50;20.02;;;3.85;;
68273;SDS011;55104;47.356;19.448;2023-09-12T17:12:53;19.92;;;4.18;;
68273;SDS011;55104;47.356;19.448;2023-09-12T17:15:56;22.80;;;4.70;;
68273;SDS011;55104;47.356;19.448;2023-09-12T17:18:58;19.92;;;4.07;;
68273;SDS011;55104;47.356;19.448;2023-09-12T17:22:00;19.95;;;4.35;;
68273;SDS011;55104;47.356;19.448;2023-09-12T17:25:02;18.17;;;3.92;;
68273;SDS011;55104;47.356;19.448;2023-09-12T17:28:05;24.35;;;4.50;;
68273;SDS011;55104;47.356;19.448;2023-09-12T17:31:07;23.23;;;5.03;;
68273;SDS011;55104;47.356;19.448;2023-09-12T17:34:12;26.02;;;4.28;;
68273;SDS011;55104;47.356;19.448;2023-09-12T17:37:16;22.33;;;4.22;;
68273;SDS011;55104;47.356;19.448;2023-09-12T17:40:18;18.98;;;4.05;;
68273;SDS011;55104;47.356;19.448;2023-09-12T17:43:20;33.00;;;5.28;;
68273;SDS011;55104;47.356;19.448;2023-09-12T17:46:23;28.37;;;4.47;;
68273;SDS011;55104;47.356;19.448;2023-09-12T17:49:26;22.83;;;4.85;;
68273;SDS011;55104;47.356;19.448;2023-09-12T17:52:28;18.10;;;4.50;;
68273;SDS011;55104;47.356;19.448;2023-09-12T17:55:30;23.95;;;5.03;;
68273;SDS011;55104;47.356;19.448;2023-09-12T17:58:32;31.92;;;5.18;;
68273;SDS011;55104;47.356;19.448;2023-09-12T18:01:34;25.80;;;6.37;;
68273;SDS011;55104;47.356;19.448;2023-09-12T18:04:38;22.38;;;4.57;;
68273;SDS011;55104;47.356;19.448;2023-09-12T18:07:41;29.23;;;4.72;;